Airfield :
LOGIN :

Register | Disclaimer

   EN    FR    IT 

 










Legend :    VFR   Marginal VFR   IFR   Intensive IFR   Very Intensive IFR
Visi :
Ceiling :
>= 8 km
>= 3000ft
5 to 8 km
1000 to 3000 ft
1500m to 5 km
500 to 1000 ft
800 to 1500m
200 to 500 ft
< 800m
< 200 ft
Symbols :   Thunderstorms  Fog  Heavy snow  Heavy precipitations  Wind > 20 kt
SIGMETs :     Misc.  Thunderstorms  Icing  Turbulence  Mountain Waves  Volcanic Ashes







- Airport Elevation : 1090 ft
- IATA code : CFE
- Download approach charts


LFLC - Clermont-Ferrand Auvergne

CURRENT METAR :
  • 221830Z AUTO 04009KT 010V070 CAVOK 20/07 Q1024 NOSIG

EXPIRED METARs :
  • 221800Z AUTO 04011KT 010V070 CAVOK 20/07 Q1024 NOSIG
  • 221730Z AUTO 03011KT 360V060 CAVOK 21/08 Q1024 NOSIG
  • 221700Z AUTO 04010KT 010V070 CAVOK 21/08 Q1023 NOSIG
  • 221630Z AUTO 03011KT 350V050 CAVOK 21/07 Q1024 NOSIG
  • 221600Z AUTO 02009KT 340V060 CAVOK 22/07 Q1024 NOSIG

TAF TAF LFLC
Valid from the 22 at 15:00 until the 23 at 15:00 UTC


221400Z 2215/2315 02010KT CAVOK
TEMPO 2215/2217 36010G20KT
BECMG 2220/2223 34004KT
BECMG 2309/2312 02008G18KT
ATIS : +33 4 73 62 74 38
No reported NOTAMs for that airfield.
1 SIGMET reported for the Marseille FIR (LFMM) :
 
Severe turbulence
LFMM SIGMET 3 VALID 221500/221900 LFPW
LFMM MARSEILLE FIR/UIR SEV TURB OBS WI N4500 E00500 - N4300 E00515 - N4315 E00415 - N4500 E00330 - N4500 E00500 SFC/FL050 STNR NC=



MET'MAP, your aeronautical weather chart ! - Copyright ORBIFLY December 2007 - Disclaimer

ORBIFLY MET'MAP TEAM :

Programming & Development : Alexandra Zaïnal
Concept & Development : Baudouin d'Aumeries
Co-Development & Prog : Marc-Olivier Méhu
Technical & hardware support : Manuel Goepfert

Contact : metmap@orbifly.com




SOURCES & CREDITS :

   NOAA